createdAt,value
2024-03-16T00:04:44.483Z,10.58
2024-03-16T00:09:46.534Z,10.54
2024-03-16T00:14:51.753Z,10.50
2024-03-16T00:19:53.750Z,10.50
2024-03-16T00:24:55.643Z,10.49
2024-03-16T00:30:57.414Z,10.49
2024-03-16T00:36:19.405Z,10.48
2024-03-16T00:41:21.528Z,10.49
2024-03-16T00:46:23.599Z,10.50
2024-03-16T00:51:25.502Z,10.50
2024-03-16T00:56:28.209Z,10.48
2024-03-16T01:01:35.299Z,10.45
2024-03-16T01:07:37.074Z,10.41
2024-03-16T01:12:59.351Z,10.42
2024-03-16T01:19:01.276Z,10.41
2024-03-16T01:25:23.032Z,10.38
2024-03-16T01:31:44.654Z,10.33
2024-03-16T01:38:06.306Z,10.29
2024-03-16T01:44:27.948Z,10.30
2024-03-16T01:50:45.006Z,10.31
2024-03-16T01:55:46.815Z,10.27
2024-03-16T02:00:49.391Z,10.25
2024-03-16T02:05:51.566Z,10.27
2024-03-16T02:11:13.468Z,10.30
2024-03-16T02:16:15.890Z,10.31
2024-03-16T02:21:18.013Z,10.30
2024-03-16T02:26:20.080Z,10.28
2024-03-16T02:32:21.804Z,10.27
2024-03-16T02:38:43.695Z,10.27
2024-03-16T02:45:05.285Z,10.19
2024-03-16T02:51:27.014Z,10.11
2024-03-16T02:57:48.964Z,10.10
2024-03-16T03:03:13.143Z,10.12
2024-03-16T03:08:15.185Z,10.13
2024-03-16T03:13:17.261Z,10.13
2024-03-16T03:18:20.593Z,10.17
2024-03-16T03:23:22.819Z,10.22
2024-03-16T03:28:24.910Z,10.27
2024-03-16T03:33:27.061Z,10.29
2024-03-16T03:38:29.432Z,10.28
2024-03-16T03:43:31.953Z,10.27
2024-03-16T03:48:37.725Z,10.28
2024-03-16T03:53:39.815Z,10.30
2024-03-16T03:58:41.926Z,10.34
2024-03-16T04:04:43.611Z,10.32
2024-03-16T04:11:09.521Z,10.29
2024-03-16T04:16:31.429Z,10.22
2024-03-16T04:22:33.352Z,10.20
2024-03-16T04:27:55.187Z,10.19
2024-03-16T04:32:57.205Z,10.18
2024-03-16T04:37:59.277Z,10.16
2024-03-16T04:43:01.425Z,10.14
2024-03-16T04:48:03.580Z,10.11
2024-03-16T04:53:05.722Z,10.10
2024-03-16T04:58:09.279Z,10.08
2024-03-16T05:03:11.442Z,10.05
2024-03-16T05:08:13.709Z,9.99
2024-03-16T05:14:15.413Z,9.95
2024-03-16T05:19:54.516Z,9.95
2024-03-16T05:24:56.848Z,9.95
2024-03-16T05:30:21.477Z,9.94
2024-03-16T05:35:51.010Z,9.91
2024-03-16T05:40:56.969Z,9.91
2024-03-16T05:46:58.718Z,9.95
2024-03-16T05:53:00.448Z,10.06
2024-03-16T05:59:03.131Z,10.15
2024-03-16T06:05:49.959Z,10.21
2024-03-16T06:12:21.149Z,10.22
2024-03-16T06:18:49.764Z,10.25
2024-03-16T06:24:28.038Z,10.36
2024-03-16T06:31:14.105Z,10.48
2024-03-16T06:37:39.722Z,10.64
2024-03-16T06:44:14.559Z,10.90
2024-03-16T06:51:00.125Z,11.09
2024-03-16T06:57:18.355Z,11.46
2024-03-16T07:03:29.211Z,11.64
2024-03-16T07:10:11.626Z,11.88
2024-03-16T07:17:06.212Z,12.06
2024-03-16T07:23:31.494Z,12.00
2024-03-16T07:29:53.493Z,11.98
2024-03-16T07:36:36.166Z,12.10
2024-03-16T07:43:01.347Z,12.22
2024-03-16T07:49:23.012Z,12.40
2024-03-16T07:55:27.610Z,12.58
2024-03-16T08:01:19.061Z,12.71
2024-03-16T08:06:47.112Z,12.87
2024-03-16T08:13:40.081Z,13.16
2024-03-16T08:20:05.978Z,13.62
2024-03-16T08:26:31.518Z,14.38
2024-03-16T08:32:54.485Z,14.78
2024-03-16T08:39:31.020Z,15.33
2024-03-16T08:45:02.767Z,15.89
2024-03-16T08:50:31.756Z,16.20
2024-03-16T08:55:45.848Z,16.73
2024-03-16T09:01:28.875Z,16.82
2024-03-16T09:07:46.224Z,16.91
2024-03-16T09:14:12.251Z,16.91
2024-03-16T09:20:01.033Z,17.27
2024-03-16T09:26:34.199Z,17.43
2024-03-16T09:33:21.151Z,17.49
2024-03-16T09:39:18.971Z,18.04
2024-03-16T09:45:09.428Z,18.89
2024-03-16T09:51:48.057Z,19.97
2024-03-16T09:58:15.816Z,20.56
2024-03-16T10:04:58.224Z,20.87
2024-03-16T10:10:14.128Z,20.56
2024-03-16T10:16:28.542Z,20.16
2024-03-16T10:21:53.799Z,20.26
2024-03-16T10:27:27.289Z,20.65
2024-03-16T10:33:28.052Z,21.03
2024-03-16T10:39:04.268Z,21.38
2024-03-16T10:45:00.518Z,21.75
2024-03-16T10:50:57.513Z,21.37
2024-03-16T10:56:59.797Z,20.92
2024-03-16T11:03:11.876Z,20.24
2024-03-16T11:08:46.565Z,19.43
2024-03-16T11:14:20.296Z,18.56
2024-03-16T11:21:05.572Z,17.86
2024-03-16T11:26:37.574Z,17.47
2024-03-16T11:31:58.889Z,18.23
2024-03-16T11:37:14.490Z,18.51
2024-03-16T11:42:18.022Z,18.19
2024-03-16T11:47:49.768Z,18.02
2024-03-16T11:53:30.118Z,17.90
2024-03-16T11:58:39.196Z,17.60
2024-03-16T12:05:11.004Z,17.12
2024-03-16T12:10:54.986Z,16.75
2024-03-16T12:16:40.758Z,16.67
2024-03-16T12:22:49.279Z,16.84
2024-03-16T12:28:36.563Z,16.99
2024-03-16T12:34:42.887Z,16.95
2024-03-16T12:41:24.860Z,16.83
2024-03-16T12:48:27.698Z,17.36
2024-03-16T12:55:02.124Z,17.14
2024-03-16T13:01:27.145Z,16.88
2024-03-16T13:08:04.165Z,16.63
2024-03-16T13:14:32.122Z,16.51
2024-03-16T13:19:54.238Z,16.45
2024-03-16T13:24:56.319Z,16.28
2024-03-16T13:29:59.086Z,16.17
2024-03-16T13:35:01.040Z,16.12
2024-03-16T13:40:04.242Z,16.10
2024-03-16T13:45:08.809Z,16.12
2024-03-16T13:50:11.042Z,16.12
2024-03-16T13:55:19.329Z,16.15
2024-03-16T14:00:21.694Z,16.17
2024-03-16T14:05:24.029Z,16.29
2024-03-16T14:10:26.086Z,16.41
2024-03-16T14:15:28.821Z,16.41
2024-03-16T14:20:32.444Z,16.43
2024-03-16T14:25:34.897Z,16.45
2024-03-16T14:30:37.126Z,16.39
2024-03-16T14:35:39.041Z,16.17
2024-03-16T14:40:40.942Z,15.83
2024-03-16T14:46:42.688Z,15.60
2024-03-16T14:53:04.377Z,15.60
2024-03-16T14:59:26.533Z,15.78
2024-03-16T15:05:48.250Z,16.01
2024-03-16T15:11:15.941Z,16.34
2024-03-16T15:17:17.682Z,16.39
2024-03-16T15:23:39.500Z,16.53
2024-03-16T15:30:01.092Z,16.62
2024-03-16T15:36:22.736Z,16.39
2024-03-16T15:42:44.520Z,16.37
2024-03-16T15:49:06.163Z,16.23
2024-03-16T15:55:27.862Z,15.99
2024-03-16T16:01:49.902Z,15.42
2024-03-16T16:07:35.444Z,14.90
2024-03-16T16:12:37.901Z,14.57
2024-03-16T16:17:40.631Z,14.33
2024-03-16T16:22:42.724Z,14.13
2024-03-16T16:27:44.838Z,13.98
2024-03-16T16:32:46.842Z,13.87
2024-03-16T16:37:48.822Z,13.76
2024-03-16T16:42:50.767Z,13.65
2024-03-16T16:47:52.880Z,13.57
2024-03-16T16:52:54.930Z,13.50
2024-03-16T16:57:57.099Z,13.48
2024-03-16T17:02:59.626Z,13.44
2024-03-16T17:08:02.121Z,13.37
2024-03-16T17:13:04.273Z,13.17
2024-03-16T17:18:06.440Z,13.02
2024-03-16T17:23:08.569Z,12.88
2024-03-16T17:28:10.708Z,12.78
2024-03-16T17:39:23.828Z,12.58
2024-03-16T17:44:29.452Z,12.43
2024-03-16T17:49:31.533Z,12.36
2024-03-16T17:55:33.242Z,12.35
2024-03-16T18:00:55.435Z,12.29
2024-03-16T18:05:57.675Z,12.24
2024-03-16T18:11:01.332Z,12.17
2024-03-16T18:16:04.866Z,12.08
2024-03-16T18:21:07.670Z,12.00
2024-03-16T18:26:12.873Z,11.95
2024-03-16T18:31:16.205Z,11.92
2024-03-16T18:36:20.151Z,11.90
2024-03-16T19:29:24.503Z,13.02
2024-03-16T19:35:47.016Z,12.48
2024-03-16T19:42:12.277Z,12.14
2024-03-16T19:48:09.389Z,11.88
2024-03-16T19:54:18.575Z,11.72
2024-03-16T20:00:40.753Z,11.58
2024-03-16T20:07:11.898Z,11.39
2024-03-16T20:13:43.593Z,11.21
2024-03-16T20:20:07.758Z,11.07
2024-03-16T20:26:33.125Z,10.90
2024-03-16T20:32:55.341Z,10.66
2024-03-16T20:39:20.015Z,10.39
2024-03-16T20:44:32.815Z,10.19
2024-03-16T20:50:26.473Z,10.07
2024-03-16T20:55:32.122Z,10.02
2024-03-16T21:01:02.719Z,9.97
2024-03-16T21:06:43.273Z,9.89
2024-03-16T21:13:40.146Z,9.76
2024-03-16T21:20:25.539Z,9.59
2024-03-16T21:26:50.175Z,9.48
2024-03-16T21:33:22.835Z,9.43
2024-03-16T21:39:23.333Z,9.41
2024-03-16T21:45:16.027Z,9.39
2024-03-16T21:51:39.173Z,9.38
2024-03-16T21:57:22.770Z,9.35
2024-03-16T22:03:09.033Z,9.28
2024-03-16T22:08:58.835Z,9.26
2024-03-16T22:15:13.972Z,9.25
2024-03-16T22:21:48.093Z,9.23
2024-03-16T22:27:49.678Z,9.17
2024-03-16T22:33:50.026Z,9.11
2024-03-16T22:40:11.679Z,9.00
2024-03-16T22:46:52.885Z,8.83
2024-03-16T22:53:44.496Z,8.72
2024-03-16T23:00:42.629Z,8.63
2024-03-16T23:07:46.457Z,8.48
2024-03-16T23:14:38.835Z,8.34
2024-03-16T23:21:32.323Z,8.22
2024-03-16T23:28:35.770Z,8.08
2024-03-16T23:35:39.184Z,7.99
2024-03-16T23:42:32.100Z,7.81
2024-03-16T23:49:26.470Z,7.60
2024-03-16T23:56:29.642Z,7.43
